createdAt,value
2022-09-17T00:00:22.022Z,3.80
2022-09-17T00:02:55.722Z,4.13
2022-09-17T00:05:28.348Z,3.17
2022-09-17T00:07:57.952Z,3.50
2022-09-17T00:10:28.190Z,3.23
2022-09-17T00:12:58.260Z,3.57
2022-09-17T00:15:27.875Z,2.73
2022-09-17T00:17:58.592Z,3.80
2022-09-17T00:20:30.844Z,3.17
2022-09-17T00:23:00.409Z,3.93
2022-09-17T00:25:30.005Z,4.18
2022-09-17T00:27:59.555Z,3.72
2022-09-17T00:30:29.094Z,3.90
2022-09-17T00:32:58.652Z,3.63
2022-09-17T00:35:30.950Z,4.10
2022-09-17T00:38:00.614Z,5.30
2022-09-17T00:40:30.359Z,4.13
2022-09-17T00:42:59.950Z,4.53
2022-09-17T00:45:30.099Z,4.25
2022-09-17T00:48:01.549Z,4.00
2022-09-17T00:50:37.827Z,3.95
2022-09-17T00:53:09.560Z,4.35
2022-09-17T00:55:41.735Z,4.30
2022-09-17T00:58:14.180Z,5.38
2022-09-17T01:00:46.292Z,4.80
2022-09-17T01:03:16.297Z,4.57
2022-09-17T01:05:51.814Z,4.55
2022-09-17T01:08:28.587Z,4.57
2022-09-17T01:11:22.888Z,5.03
2022-09-17T01:13:59.929Z,5.18
2022-09-17T01:16:34.950Z,5.70
2022-09-17T01:19:23.111Z,5.35
2022-09-17T01:22:03.963Z,5.20
2022-09-17T01:24:50.041Z,5.05
2022-09-17T01:27:51.631Z,5.53
2022-09-17T01:30:43.829Z,5.60
2022-09-17T01:33:20.168Z,5.70
2022-09-17T01:35:54.081Z,4.30
2022-09-17T01:38:29.250Z,4.63
2022-09-17T01:41:02.386Z,4.22
2022-09-17T01:43:37.049Z,4.68
2022-09-17T01:46:12.220Z,5.20
2022-09-17T01:48:50.281Z,4.50
2022-09-17T01:51:23.025Z,5.50
2022-09-17T01:53:57.975Z,4.78
2022-09-17T01:56:31.009Z,4.40
2022-09-17T01:59:04.929Z,4.50
2022-09-17T02:01:35.269Z,4.50
2022-09-17T02:04:11.354Z,4.60
2022-09-17T02:06:44.447Z,4.65
2022-09-17T02:09:18.260Z,4.55
2022-09-17T02:11:52.060Z,4.00
2022-09-17T02:14:24.002Z,4.80
2022-09-17T02:16:56.323Z,6.03
2022-09-17T02:19:31.559Z,5.07
2022-09-17T02:22:04.898Z,4.93
2022-09-17T02:24:38.390Z,5.00
2022-09-17T02:27:10.926Z,4.57
2022-09-17T02:29:42.893Z,5.57
2022-09-17T02:32:13.078Z,4.80
2022-09-17T02:34:45.332Z,5.18
2022-09-17T02:37:15.165Z,6.28
2022-09-17T02:39:45.297Z,4.72
2022-09-17T02:42:24.964Z,4.80
2022-09-17T02:45:02.481Z,4.70
2022-09-17T02:47:41.076Z,4.60
2022-09-17T02:50:22.688Z,5.00
2022-09-17T02:53:00.835Z,4.68
2022-09-17T02:55:35.807Z,3.85
2022-09-17T02:58:12.664Z,4.40
2022-09-17T03:00:43.098Z,4.15
2022-09-17T03:03:15.527Z,4.88
2022-09-17T03:05:47.811Z,4.22
2022-09-17T03:08:20.211Z,4.47
2022-09-17T03:10:50.344Z,4.10
2022-09-17T03:13:20.285Z,4.32
2022-09-17T03:15:49.972Z,4.95
2022-09-17T03:18:19.597Z,3.90
2022-09-17T03:20:51.886Z,3.15
2022-09-17T03:23:21.573Z,5.20
2022-09-17T03:25:52.074Z,3.85
2022-09-17T03:28:21.638Z,3.60
2022-09-17T03:30:51.267Z,4.15
2022-09-17T03:33:20.890Z,3.78
2022-09-17T03:35:53.100Z,3.90
2022-09-17T03:38:22.702Z,3.80
2022-09-17T03:41:00.621Z,3.10
2022-09-17T03:43:30.380Z,4.03
2022-09-17T03:46:00.432Z,3.70
2022-09-17T03:48:30.398Z,3.85
2022-09-17T03:51:02.681Z,3.70
2022-09-17T03:53:32.345Z,3.47
2022-09-17T03:56:02.211Z,4.10
2022-09-17T03:58:32.636Z,3.00
2022-09-17T04:01:03.486Z,3.08
2022-09-17T04:03:33.516Z,3.50
2022-09-17T04:06:05.956Z,3.40
2022-09-17T04:08:36.672Z,3.40
2022-09-17T04:11:07.824Z,3.35
2022-09-17T04:13:37.648Z,3.70
2022-09-17T04:16:07.453Z,3.10
2022-09-17T04:18:37.319Z,3.35
2022-09-17T04:21:09.815Z,4.50
2022-09-17T04:23:39.371Z,3.58
2022-09-17T04:26:09.044Z,3.45
2022-09-17T04:28:38.611Z,3.20
2022-09-17T04:31:08.367Z,2.90
2022-09-17T04:33:38.019Z,3.10
2022-09-17T04:36:10.306Z,3.40
2022-09-17T04:38:39.923Z,3.05
2022-09-17T04:41:10.011Z,3.30
2022-09-17T04:43:39.671Z,2.92
2022-09-17T04:46:09.516Z,3.30
2022-09-17T04:48:39.274Z,4.35
2022-09-17T04:51:11.551Z,3.63
2022-09-17T04:53:41.206Z,3.90
2022-09-17T04:56:10.818Z,3.10
2022-09-17T04:58:40.506Z,3.60
2022-09-17T05:01:11.097Z,4.30
2022-09-17T05:03:40.762Z,3.20
2022-09-17T05:06:13.165Z,3.00
2022-09-17T05:08:42.762Z,3.90
2022-09-17T05:11:12.295Z,3.90
2022-09-17T05:13:42.090Z,3.30
2022-09-17T05:16:12.081Z,3.50
2022-09-17T05:18:41.731Z,3.88
2022-09-17T05:21:14.287Z,3.38
2022-09-17T05:23:43.851Z,4.50
2022-09-17T05:26:13.656Z,3.80
2022-09-17T05:28:43.363Z,3.33
2022-09-17T05:31:13.609Z,3.40
2022-09-17T05:33:43.340Z,4.13
2022-09-17T05:36:15.519Z,3.83
2022-09-17T05:38:45.147Z,3.20
2022-09-17T05:41:14.892Z,3.80
2022-09-17T05:43:46.275Z,3.47
2022-09-17T05:46:15.957Z,3.00
2022-09-17T05:48:46.346Z,2.83
2022-09-17T05:51:18.996Z,2.90
2022-09-17T05:53:48.619Z,3.20
2022-09-17T05:56:19.465Z,4.07
2022-09-17T05:58:49.190Z,3.00
2022-09-17T06:01:19.053Z,2.85
2022-09-17T06:18:17.156Z,3.00
2022-09-17T06:20:46.784Z,2.70
2022-09-17T06:23:16.484Z,2.90
2022-09-17T06:25:46.044Z,3.30
2022-09-17T06:28:15.606Z,3.20
2022-09-17T06:30:45.167Z,2.63
2022-09-17T06:33:17.488Z,2.90
2022-09-17T06:35:47.319Z,2.50
2022-09-17T06:38:16.935Z,2.20
2022-09-17T06:40:46.750Z,2.97
2022-09-17T06:43:16.294Z,3.30
2022-09-17T06:45:46.033Z,2.58
2022-09-17T06:48:18.556Z,2.67
2022-09-17T06:50:48.509Z,2.90
2022-09-17T06:53:19.998Z,2.55
2022-09-17T06:55:49.703Z,2.75
2022-09-17T06:58:19.387Z,2.73
2022-09-17T07:00:49.100Z,3.20
2022-09-17T07:03:23.368Z,3.00
2022-09-17T07:05:53.120Z,3.00
2022-09-17T07:08:22.664Z,2.63
2022-09-17T07:10:52.500Z,3.00
2022-09-17T07:13:22.087Z,3.10
2022-09-17T07:15:56.160Z,3.60
2022-09-17T07:18:28.683Z,3.35
2022-09-17T07:20:59.134Z,3.10
2022-09-17T07:23:29.889Z,3.33
2022-09-17T07:26:00.931Z,3.20
2022-09-17T07:28:31.531Z,2.90
2022-09-17T07:31:01.132Z,3.50
2022-09-17T07:33:33.326Z,3.10
2022-09-17T07:36:04.952Z,3.28
2022-09-17T07:38:35.190Z,3.80
2022-09-17T07:41:06.093Z,3.53
2022-09-17T07:43:37.583Z,4.13
2022-09-17T07:46:08.805Z,3.58
2022-09-17T07:48:41.041Z,3.63
2022-09-17T07:51:10.660Z,3.45
2022-09-17T07:53:40.307Z,3.35
2022-09-17T07:56:12.007Z,2.92
2022-09-17T07:58:42.267Z,3.80
2022-09-17T08:01:13.563Z,3.30
2022-09-17T08:03:46.934Z,4.17
2022-09-17T08:06:18.498Z,3.88
2022-09-17T08:08:48.546Z,3.42
2022-09-17T08:11:38.184Z,3.00
2022-09-17T08:14:09.132Z,2.80
2022-09-17T08:16:38.791Z,2.70
2022-09-17T08:19:11.685Z,2.40
2022-09-17T08:21:41.500Z,2.80
2022-09-17T08:24:11.498Z,2.78
2022-09-17T08:26:41.485Z,3.13
2022-09-17T08:29:11.351Z,2.90
2022-09-17T08:31:41.096Z,2.33
2022-09-17T08:34:13.956Z,2.00
2022-09-17T08:36:43.627Z,2.72
2022-09-17T08:39:13.266Z,2.10
2022-09-17T08:41:55.201Z,2.38
2022-09-17T08:44:28.083Z,2.10
2022-09-17T08:47:06.305Z,2.55
2022-09-17T08:49:39.950Z,2.47
2022-09-17T08:52:33.082Z,2.80
2022-09-17T08:55:11.676Z,3.38
2022-09-17T08:57:48.845Z,3.40
2022-09-17T09:00:20.423Z,3.50
2022-09-17T12:58:14.913Z,1.10
2022-09-17T13:00:49.201Z,1.00
2022-09-17T13:03:23.261Z,0.82
2022-09-17T13:06:13.617Z,0.90
2022-09-17T13:09:21.683Z,0.60
2022-09-17T13:12:04.716Z,0.70
2022-09-17T13:14:51.996Z,0.80
2022-09-17T13:17:28.541Z,0.65
2022-09-17T13:20:04.530Z,0.83
2022-09-17T13:22:35.251Z,1.10
2022-09-17T13:25:07.234Z,0.90
2022-09-17T13:27:37.708Z,1.00
2022-09-17T13:30:11.952Z,0.95
2022-09-17T13:32:55.633Z,1.05
2022-09-17T13:35:49.338Z,1.05
2022-09-17T13:38:23.121Z,1.40
2022-09-17T13:40:54.234Z,1.30
2022-09-17T13:43:27.841Z,1.40
2022-09-17T13:46:15.655Z,1.40
2022-09-17T13:48:51.982Z,1.50
2022-09-17T13:51:52.272Z,1.67
2022-09-17T13:54:24.386Z,1.70
2022-09-17T13:57:07.941Z,2.17
2022-09-17T13:59:39.142Z,2.60
2022-09-17T14:02:39.401Z,2.13
2022-09-17T14:46:24.491Z,1.35
2022-09-17T14:48:56.829Z,1.50
2022-09-17T14:51:31.774Z,2.00
2022-09-17T14:54:26.326Z,2.03
2022-09-17T14:57:03.722Z,2.33
2022-09-17T14:59:43.769Z,2.50
2022-09-17T15:02:32.585Z,2.70
2022-09-17T15:05:06.070Z,2.70
2022-09-17T15:07:35.716Z,2.25
2022-09-17T15:10:15.646Z,2.30
2022-09-17T15:12:46.003Z,2.17
2022-09-17T15:15:21.064Z,2.20
2022-09-17T15:17:51.285Z,2.00
2022-09-17T15:20:25.689Z,2.00
2022-09-17T15:22:59.050Z,2.30
2022-09-17T15:25:32.397Z,1.98
2022-09-17T15:28:07.959Z,2.33
2022-09-17T15:30:37.915Z,1.90
2022-09-17T15:33:12.541Z,1.80
2022-09-17T15:35:45.003Z,2.50
2022-09-17T15:38:28.123Z,2.47
2022-09-17T15:40:58.280Z,2.00
2022-09-17T15:43:30.255Z,1.70
2022-09-17T15:46:01.528Z,1.77
2022-09-17T15:48:39.639Z,1.50
2022-09-17T15:51:26.255Z,1.40
2022-09-17T15:53:57.391Z,1.70
2022-09-17T15:56:28.951Z,1.05
2022-09-17T15:59:03.204Z,1.00
2022-09-17T16:01:56.495Z,1.00
2022-09-17T16:04:31.178Z,1.40
2022-09-17T16:07:32.777Z,1.50
2022-09-17T16:10:02.419Z,1.17
2022-09-17T16:12:32.023Z,1.10
2022-09-17T16:15:03.169Z,1.10
2022-09-17T16:17:43.246Z,1.20
2022-09-17T16:20:18.001Z,1.00
2022-09-17T16:22:50.763Z,1.20
2022-09-17T16:25:21.136Z,1.63
2022-09-17T16:27:53.786Z,1.40
2022-09-17T16:30:24.775Z,1.40
2022-09-17T16:32:54.789Z,25.77
2022-09-17T16:35:25.825Z,30.00
2022-09-17T16:37:59.080Z,18.92
2022-09-17T16:40:31.195Z,7.15
2022-09-17T16:43:03.303Z,3.88
2022-09-17T16:45:33.519Z,2.40
2022-09-17T16:48:03.274Z,1.77
2022-09-17T16:50:33.088Z,0.90
2022-09-17T16:53:06.437Z,1.20
2022-09-17T16:55:36.016Z,1.30
2022-09-17T16:58:05.599Z,1.00
2022-09-17T17:00:36.685Z,1.20
2022-09-17T17:03:07.599Z,1.33
2022-09-17T17:05:39.590Z,0.93
2022-09-17T17:08:14.525Z,1.52
2022-09-17T17:10:44.350Z,1.40
2022-09-17T17:13:14.013Z,1.20
2022-09-17T17:15:44.072Z,1.10
2022-09-17T17:18:13.730Z,1.52
2022-09-17T17:20:43.343Z,1.53
2022-09-17T17:23:15.579Z,1.80
2022-09-17T17:25:45.217Z,1.73
2022-09-17T17:28:15.001Z,1.88
2022-09-17T17:30:44.797Z,1.60
2022-09-17T17:33:14.373Z,2.28
2022-09-17T17:35:45.490Z,2.00
2022-09-17T17:38:19.904Z,1.60
2022-09-17T17:40:49.594Z,1.88
2022-09-17T17:43:19.199Z,1.67
2022-09-17T17:45:48.890Z,2.28
2022-09-17T17:48:18.479Z,2.10
2022-09-17T17:50:48.355Z,2.30
2022-09-17T17:53:20.731Z,2.10
2022-09-17T17:55:59.570Z,2.10
2022-09-17T17:58:29.548Z,2.17
2022-09-17T18:00:59.202Z,2.40
2022-09-17T18:03:29.111Z,2.50
2022-09-17T18:06:00.578Z,2.13
2022-09-17T18:08:32.760Z,2.50
2022-09-17T18:11:04.084Z,2.22
2022-09-17T18:13:34.348Z,1.80
2022-09-17T18:16:05.076Z,2.22
2022-09-17T18:18:42.123Z,1.97
2022-09-17T18:21:15.836Z,3.20
2022-09-17T18:23:48.270Z,2.30
2022-09-17T18:26:19.108Z,2.85
2022-09-17T18:28:48.851Z,3.20
2022-09-17T18:31:23.741Z,2.60
2022-09-17T18:33:55.727Z,2.75
2022-09-17T18:36:25.360Z,2.90
2022-09-17T18:39:24.135Z,3.00
2022-09-17T18:41:51.541Z,2.90
2022-09-17T18:44:22.029Z,2.75
2022-09-17T18:46:52.121Z,2.80
2022-09-17T18:49:21.951Z,3.47
2022-09-17T18:51:51.650Z,3.13
2022-09-17T18:54:24.020Z,3.30
2022-09-17T18:56:53.609Z,3.17
2022-09-17T18:59:23.128Z,3.53
2022-09-17T19:01:52.818Z,3.53
2022-09-17T19:04:23.026Z,3.97
2022-09-17T19:06:52.606Z,3.60
2022-09-17T19:09:24.723Z,4.43
2022-09-17T19:11:54.371Z,3.30
2022-09-17T19:14:23.955Z,4.70
2022-09-17T19:16:55.240Z,3.42
2022-09-17T19:19:24.816Z,3.33
2022-09-17T19:21:54.561Z,3.97
2022-09-17T19:24:26.770Z,3.88
2022-09-17T19:26:56.327Z,4.85
2022-09-17T19:29:26.004Z,4.10
2022-09-17T19:31:56.218Z,5.80
2022-09-17T19:34:25.934Z,4.70
2022-09-17T19:36:55.883Z,4.47
2022-09-17T19:39:28.229Z,3.83
2022-09-17T19:41:58.070Z,4.70
2022-09-17T19:44:31.153Z,3.70
2022-09-17T19:47:01.079Z,3.08
2022-09-17T19:49:31.469Z,3.80
2022-09-17T19:52:01.700Z,4.20
2022-09-17T19:54:34.084Z,3.40
2022-09-17T19:57:04.218Z,2.65
2022-09-17T19:59:34.020Z,3.00
2022-09-17T20:02:03.700Z,3.38
2022-09-17T20:04:34.301Z,3.40
2022-09-17T20:07:04.616Z,3.78
2022-09-17T20:09:36.970Z,3.40
2022-09-17T20:12:07.223Z,3.65
2022-09-17T20:14:36.991Z,3.38
2022-09-17T20:17:06.834Z,3.42
2022-09-17T20:19:36.360Z,3.40
2022-09-17T20:22:06.117Z,5.07
2022-09-17T20:24:38.306Z,3.63
2022-09-17T20:27:08.091Z,4.70
2022-09-17T20:29:37.706Z,4.85
2022-09-17T20:32:07.450Z,4.67
2022-09-17T20:34:37.029Z,3.40
2022-09-17T20:37:13.032Z,3.60
2022-09-17T20:39:45.502Z,3.20
2022-09-17T20:42:15.071Z,2.97
2022-09-17T20:44:44.597Z,3.40
2022-09-17T20:47:14.212Z,3.80
2022-09-17T20:49:43.803Z,3.10
2022-09-17T20:52:14.470Z,3.63
2022-09-17T20:54:48.979Z,4.40
2022-09-17T20:57:18.551Z,4.20
2022-09-17T20:59:53.423Z,4.55
2022-09-17T21:02:25.433Z,3.33
2022-09-17T21:04:55.202Z,3.50
2022-09-17T21:07:24.928Z,3.20
2022-09-17T21:09:57.076Z,2.95
2022-09-17T21:12:27.730Z,3.85
2022-09-17T21:14:57.307Z,2.90
2022-09-17T21:17:27.163Z,2.22
2022-09-17T21:19:57.811Z,2.23
2022-09-17T21:22:27.315Z,2.55
2022-09-17T21:24:59.485Z,2.00
2022-09-17T21:27:29.015Z,2.05
2022-09-17T21:29:58.556Z,2.70
2022-09-17T21:32:28.133Z,2.03
2022-09-17T21:34:57.728Z,1.90
2022-09-17T21:37:27.440Z,2.10
2022-09-17T21:39:59.682Z,2.08
2022-09-17T21:42:29.254Z,2.20
2022-09-17T21:44:58.784Z,2.15
2022-09-17T21:47:28.328Z,1.60
2022-09-17T21:49:57.888Z,1.50
2022-09-17T21:52:28.197Z,1.70
2022-09-17T21:55:00.363Z,1.60
2022-09-17T21:57:30.996Z,2.00
2022-09-17T22:00:00.522Z,1.98
2022-09-17T22:02:32.521Z,2.10
2022-09-17T22:05:02.439Z,1.60
2022-09-17T22:07:32.498Z,2.28
2022-09-17T22:10:04.680Z,1.70
2022-09-17T22:12:34.235Z,2.27
2022-09-17T22:15:04.328Z,2.80
2022-09-17T22:17:33.888Z,2.05
2022-09-17T22:20:03.659Z,2.28
2022-09-17T22:22:33.270Z,2.90
2022-09-17T22:25:05.480Z,2.78
2022-09-17T22:27:35.133Z,3.15
2022-09-17T22:30:04.697Z,3.53
2022-09-17T22:32:34.294Z,2.60
2022-09-17T22:35:03.937Z,2.90
2022-09-17T22:37:33.481Z,3.20
2022-09-17T22:40:06.072Z,2.55
2022-09-17T22:42:35.803Z,2.90
2022-09-17T22:45:07.843Z,2.85
2022-09-17T22:47:37.460Z,2.67
2022-09-17T22:50:08.010Z,3.40
2022-09-17T22:52:37.840Z,2.58
2022-09-17T22:55:10.583Z,2.20
2022-09-17T22:57:40.180Z,1.90
2022-09-17T23:00:12.749Z,2.53
2022-09-17T23:02:42.383Z,2.50
2022-09-17T23:05:12.130Z,2.60
2022-09-17T23:07:41.748Z,2.72
2022-09-17T23:10:14.004Z,2.10
2022-09-17T23:12:43.660Z,2.00
2022-09-17T23:15:13.321Z,2.28
2022-09-17T23:17:42.878Z,2.30
2022-09-17T23:20:12.972Z,2.63
2022-09-17T23:22:42.629Z,2.10
2022-09-17T23:25:14.984Z,2.20
2022-09-17T23:27:44.609Z,2.42
2022-09-17T23:30:14.843Z,2.63
2022-09-17T23:32:44.472Z,2.20
2022-09-17T23:35:14.337Z,2.50
2022-09-17T23:37:43.929Z,2.50
2022-09-17T23:40:16.316Z,2.10
2022-09-17T23:42:46.160Z,2.20
2022-09-17T23:45:15.891Z,2.53
2022-09-17T23:47:45.709Z,2.60
2022-09-17T23:50:15.410Z,2.38
2022-09-17T23:52:44.961Z,2.33
2022-09-17T23:55:17.117Z,2.50
2022-09-17T23:57:46.765Z,2.40
